Time,TemperatureF,DewpointF,PressureIn,WindDirection,WindDirectionDegrees,WindSpeedMPH,WindSpeedGustMPH,Humidity,HourlyPrecipIn,Conditions,Clouds,dailyrainin,SoftwareType,DateUTC
2013-02-10 00:00:00,43.3,30.0,30.29,East,97,0.0,2.0,59,0.00,,---,0.00,VWS V14.01,2013-02-10 05:00:00,
2013-02-10 00:15:00,42.4,30.7,30.30,East,97,0.0,1.0,63,0.00,,---,0.00,VWS V14.01,2013-02-10 05:15:00,
2013-02-10 00:30:00,42.8,28.2,30.29,ESE,105,1.0,3.0,56,0.00,,---,0.00,VWS V14.01,2013-02-10 05:30:00,
2013-02-10 00:45:00,44.5,28.0,30.29,ESE,102,3.0,3.0,52,0.00,,---,0.00,VWS V14.01,2013-02-10 05:45:00,
2013-02-10 01:00:00,45.4,28.4,30.28,ESE,103,4.0,4.0,51,0.00,,---,0.00,VWS V14.01,2013-02-10 06:00:00,
2013-02-10 01:15:00,45.3,28.2,30.29,ESE,110,2.0,4.0,51,0.00,,---,0.00,VWS V14.01,2013-02-10 06:15:00,
2013-02-10 01:30:00,45.0,28.5,30.29,ESE,107,2.0,4.0,52,0.00,,---,0.00,VWS V14.01,2013-02-10 06:30:00,
2013-02-10 01:45:00,44.3,28.7,30.30,ESE,110,1.0,4.0,54,0.00,,---,0.00,VWS V14.01,2013-02-10 06:45:00,
2013-02-10 02:00:00,43.8,28.2,30.29,ESE,105,1.0,3.0,54,0.00,,---,0.00,VWS V14.01,2013-02-10 07:00:00,
2013-02-10 02:15:00,43.2,28.6,30.30,ESE,113,1.0,2.0,56,0.00,,---,0.00,VWS V14.01,2013-02-10 07:15:00,
2013-02-10 02:30:00,42.4,29.1,30.30,ESE,117,1.0,2.0,59,0.00,,---,0.00,VWS V14.01,2013-02-10 07:30:00,
2013-02-10 02:45:00,42.4,29.1,30.31,ESE,107,2.0,2.0,59,0.00,,---,0.00,VWS V14.01,2013-02-10 07:45:00,
2013-02-10 03:00:00,42.6,29.7,30.30,ESE,105,1.0,3.0,60,0.00,,---,0.00,VWS V14.01,2013-02-10 08:00:00,
2013-02-10 03:15:00,42.8,30.3,30.29,East,101,3.0,3.0,61,0.00,,---,0.00,VWS V14.01,2013-02-10 08:15:00,
2013-02-10 03:30:00,43.4,30.9,30.28,ESE,102,3.0,3.0,61,0.00,,---,0.00,VWS V14.01,2013-02-10 08:30:00,
2013-02-10 03:45:00,43.6,31.5,30.29,ESE,113,2.0,3.0,62,0.00,,---,0.00,VWS V14.01,2013-02-10 08:45:00,
2013-02-10 04:00:00,43.2,31.5,30.29,East,95,3.0,3.0,63,0.00,,---,0.00,VWS V14.01,2013-02-10 09:00:00,
2013-02-10 04:15:00,42.7,32.2,30.30,ESE,108,0.0,2.0,66,0.00,,---,0.00,VWS V14.01,2013-02-10 09:15:00,
2013-02-10 04:30:00,41.5,32.5,30.31,ESE,108,0.0,1.0,70,0.00,,---,0.00,VWS V14.01,2013-02-10 09:30:00,
2013-02-10 04:45:00,40.7,31.7,30.30,ESE,108,1.0,2.0,70,0.00,,---,0.00,VWS V14.01,2013-02-10 09:45:00,
2013-02-10 05:00:00,41.2,31.5,30.29,ESE,108,1.0,3.0,68,0.00,,---,0.00,VWS V14.01,2013-02-10 10:00:00,
2013-02-10 05:15:00,41.5,31.4,30.31,ESE,120,1.0,2.0,67,0.00,,---,0.00,VWS V14.01,2013-02-10 10:15:00,
2013-02-10 05:30:00,41.7,30.4,30.32,SE,128,0.0,2.0,64,0.00,,---,0.00,VWS V14.01,2013-02-10 10:30:00,
2013-02-10 05:45:00,41.0,31.3,30.32,ESE,122,1.0,1.0,68,0.00,,---,0.00,VWS V14.01,2013-02-10 10:45:00,
2013-02-10 06:00:00,40.9,31.9,30.32,ENE,70,0.0,2.0,70,0.00,,---,0.00,VWS V14.01,2013-02-10 11:00:00,
2013-02-10 06:15:00,40.1,30.4,30.33,East,84,2.0,2.0,68,0.00,,---,0.00,VWS V14.01,2013-02-10 11:15:00,
2013-02-10 06:30:00,40.9,31.2,30.33,East,94,0.0,2.0,68,0.00,,---,0.00,VWS V14.01,2013-02-10 11:30:00,
2013-02-10 06:45:00,40.8,31.1,30.33,East,91,2.0,2.0,68,0.00,,---,0.00,VWS V14.01,2013-02-10 11:45:00,
2013-02-10 07:00:00,40.6,30.9,30.34,East,96,1.0,2.0,68,0.00,,---,0.00,VWS V14.01,2013-02-10 12:00:00,
2013-02-10 07:15:00,40.7,31.0,30.34,ESE,108,2.0,3.0,68,0.00,,---,0.00,VWS V14.01,2013-02-10 12:15:00,
2013-02-10 07:30:00,40.7,30.6,30.34,East,100,2.0,3.0,67,0.00,,---,0.00,VWS V14.01,2013-02-10 12:30:00,
2013-02-10 07:45:00,40.7,31.7,30.34,ESE,104,1.0,3.0,70,0.00,,---,0.00,VWS V14.01,2013-02-10 12:45:00,
2013-02-10 08:00:00,41.0,32.3,30.36,ESE,110,1.0,3.0,71,0.00,,---,0.00,VWS V14.01,2013-02-10 13:00:00,
2013-02-10 08:15:00,41.5,33.2,30.35,ESE,104,3.0,4.0,72,0.00,,---,0.00,VWS V14.01,2013-02-10 13:15:00,
2013-02-10 08:30:00,42.3,33.9,30.35,ESE,122,1.0,4.0,72,0.00,,---,0.00,VWS V14.01,2013-02-10 13:30:00,
2013-02-10 08:45:00,43.3,34.5,30.36,East,96,2.0,5.0,71,0.00,,---,0.00,VWS V14.01,2013-02-10 13:45:00,
2013-02-10 09:00:00,45.5,35.9,30.35,ESE,104,2.0,6.0,69,0.00,,---,0.00,VWS V14.01,2013-02-10 14:00:00,
2013-02-10 09:15:00,46.3,37.1,30.34,SE,128,2.0,5.0,70,0.00,,---,0.00,VWS V14.01,2013-02-10 14:15:00,
2013-02-10 09:30:00,47.8,37.4,30.33,East,96,3.0,5.0,67,0.00,,---,0.00,VWS V14.01,2013-02-10 14:30:00,
2013-02-10 09:45:00,47.8,36.6,30.34,East,95,2.0,6.0,65,0.00,,---,0.00,VWS V14.01,2013-02-10 14:45:00,
2013-02-10 10:00:00,48.5,36.1,30.35,SE,129,3.0,5.0,62,0.00,,---,0.00,VWS V14.01,2013-02-10 15:00:00,
2013-02-10 10:15:00,50.4,36.2,30.35,SE,126,2.0,6.0,58,0.00,,---,0.00,VWS V14.01,2013-02-10 15:15:00,
2013-02-10 10:30:00,52.2,35.6,30.36,ESE,110,3.0,6.0,53,0.00,,---,0.00,VWS V14.01,2013-02-10 15:30:00,
2013-02-10 10:45:00,53.4,35.2,30.38,ESE,122,1.0,5.0,50,0.00,,---,0.00,VWS V14.01,2013-02-10 15:45:00,
2013-02-10 11:00:00,55.1,35.8,30.37,ESE,111,4.0,6.0,48,0.00,,---,0.00,VWS V14.01,2013-02-10 16:00:00,
2013-02-10 11:15:00,56.4,37.5,30.36,SE,139,3.0,6.0,49,0.00,,---,0.00,VWS V14.01,2013-02-10 16:15:00,
2013-02-10 11:30:00,56.1,37.7,30.35,East,98,4.0,6.0,50,0.00,,---,0.00,VWS V14.01,2013-02-10 16:30:00,
2013-02-10 11:45:00,57.9,39.9,30.34,ESE,120,3.0,7.0,51,0.00,,---,0.00,VWS V14.01,2013-02-10 16:45:00,
2013-02-10 12:00:00,58.6,40.5,30.33,East,89,4.0,8.0,51,0.00,,---,0.00,VWS V14.01,2013-02-10 17:00:00,
2013-02-10 12:15:00,59.4,41.8,30.32,ESE,121,2.0,9.0,52,0.00,,---,0.00,VWS V14.01,2013-02-10 17:15:00,
2013-02-10 12:30:00,60.6,43.4,30.31,SE,125,3.0,6.0,53,0.00,,---,0.00,VWS V14.01,2013-02-10 17:30:00,
2013-02-10 12:45:00,60.7,43.5,30.30,ESE,117,2.0,7.0,53,0.00,,---,0.00,VWS V14.01,2013-02-10 17:45:00,
2013-02-10 13:00:00,61.5,44.2,30.29,SE,131,2.0,7.0,53,0.00,,---,0.00,VWS V14.01,2013-02-10 18:00:00,
2013-02-10 13:15:00,61.5,44.7,30.27,East,98,4.0,8.0,54,0.00,,---,0.00,VWS V14.01,2013-02-10 18:15:00,
2013-02-10 13:30:00,61.2,45.9,30.25,SE,132,5.0,6.0,57,0.00,,---,0.00,VWS V14.01,2013-02-10 18:30:00,
2013-02-10 13:45:00,61.2,45.9,30.24,ESE,115,4.0,8.0,57,0.00,,---,0.00,VWS V14.01,2013-02-10 18:45:00,
2013-02-10 14:00:00,61.6,46.2,30.22,SE,124,4.0,9.0,57,0.00,,---,0.00,VWS V14.01,2013-02-10 19:00:00,
2013-02-10 14:15:00,62.1,46.7,30.22,ESE,114,2.0,7.0,57,0.00,,---,0.00,VWS V14.01,2013-02-10 19:15:00,
2013-02-10 14:30:00,63.0,47.5,30.22,ESE,110,4.0,7.0,57,0.00,,---,0.00,VWS V14.01,2013-02-10 19:30:00,
2013-02-10 14:45:00,63.4,47.5,30.21,SE,127,7.0,8.0,56,0.00,,---,0.00,VWS V14.01,2013-02-10 19:45:00,
2013-02-10 15:00:00,63.2,47.7,30.20,SE,125,4.0,8.0,57,0.00,,---,0.00,VWS V14.01,2013-02-10 20:00:00,
2013-02-10 15:15:00,63.1,47.6,30.19,ESE,120,4.0,11.0,57,0.00,,---,0.00,VWS V14.01,2013-02-10 20:15:00,
2013-02-10 15:30:00,64.2,48.2,30.18,ESE,122,3.0,9.0,56,0.00,,---,0.00,VWS V14.01,2013-02-10 20:30:00,
2013-02-10 15:45:00,64.1,48.1,30.18,SE,136,4.0,7.0,56,0.00,,---,0.00,VWS V14.01,2013-02-10 20:45:00,
2013-02-10 16:00:00,63.5,48.5,30.18,ESE,107,5.0,8.0,58,0.00,,---,0.00,VWS V14.01,2013-02-10 21:00:00,
2013-02-10 16:15:00,63.7,49.1,30.18,SE,134,3.0,6.0,59,0.00,,---,0.00,VWS V14.01,2013-02-10 21:15:00,
2013-02-10 16:30:00,63.8,48.8,30.16,SE,139,2.0,7.0,58,0.00,,---,0.00,VWS V14.01,2013-02-10 21:30:00,
2013-02-10 16:45:00,63.6,49.0,30.17,ESE,107,3.0,4.0,59,0.00,,---,0.00,VWS V14.01,2013-02-10 21:45:00,
2013-02-10 17:00:00,63.4,48.8,30.16,SE,129,2.0,5.0,59,0.00,,---,0.00,VWS V14.01,2013-02-10 22:00:00,
2013-02-10 17:15:00,63.1,49.5,30.15,ESE,108,3.0,4.0,61,0.00,,---,0.00,VWS V14.01,2013-02-10 22:15:00,
2013-02-10 17:30:00,63.1,49.9,30.15,ESE,115,2.0,6.0,62,0.00,,---,0.00,VWS V14.01,2013-02-10 22:30:00,
2013-02-10 17:45:00,62.8,50.5,30.14,SE,129,6.0,6.0,64,0.00,,---,0.00,VWS V14.01,2013-02-10 22:45:00,
2013-02-10 18:00:00,62.5,50.6,30.13,ESE,115,2.0,8.0,65,0.00,,---,0.00,VWS V14.01,2013-02-10 23:00:00,
2013-02-10 18:15:00,62.0,50.5,30.13,SE,127,3.0,7.0,66,0.00,,---,0.00,VWS V14.01,2013-02-10 23:15:00,
2013-02-10 18:30:00,61.5,50.8,30.12,ESE,110,3.0,8.0,68,0.00,,---,0.00,VWS V14.01,2013-02-10 23:30:00,
2013-02-10 18:45:00,61.2,51.0,30.10,ESE,122,3.0,6.0,69,0.00,,---,0.00,VWS V14.01,2013-02-10 23:45:00,
2013-02-10 19:00:00,61.0,51.2,30.09,ESE,120,5.0,8.0,70,0.00,,---,0.00,VWS V14.01,2013-02-11 00:00:00,
2013-02-10 19:15:00,60.8,51.3,30.09,ESE,110,3.0,7.0,71,0.00,,---,0.00,VWS V14.01,2013-02-11 00:15:00,
2013-02-10 19:30:00,60.8,51.7,30.11,SE,141,3.0,6.0,72,0.00,,---,0.00,VWS V14.01,2013-02-11 00:30:00,
2013-02-10 19:45:00,60.8,51.7,30.13,SE,129,2.0,5.0,72,0.00,,---,0.00,VWS V14.01,2013-02-11 00:45:00,
2013-02-10 20:00:00,60.7,52.0,30.13,SE,132,2.0,4.0,73,0.00,,---,0.00,VWS V14.01,2013-02-11 01:00:00,
2013-02-10 20:15:00,60.7,52.4,30.13,ESE,120,3.0,5.0,74,0.00,,---,0.00,VWS V14.01,2013-02-11 01:15:00,
2013-02-10 20:30:00,60.5,52.5,30.15,SE,125,2.0,5.0,75,0.00,,---,0.00,VWS V14.01,2013-02-11 01:30:00,
2013-02-10 20:45:00,60.1,52.5,30.15,ESE,115,1.0,4.0,76,0.00,,---,0.00,VWS V14.01,2013-02-11 01:45:00,
2013-02-10 21:00:00,60.0,53.1,30.16,ESE,107,0.0,4.0,78,0.00,,---,0.00,VWS V14.01,2013-02-11 02:00:00,
2013-02-10 21:15:00,59.0,53.5,30.18,NW,319,0.0,1.0,82,0.00,,---,0.00,VWS V14.01,2013-02-11 02:15:00,
2013-02-10 21:30:00,57.8,54.3,30.18,NNW,335,0.0,2.0,88,0.01,,---,0.01,VWS V14.01,2013-02-11 02:30:00,
2013-02-10 21:45:00,56.7,54.1,30.19,NNW,334,0.0,1.0,91,0.05,,---,0.05,VWS V14.01,2013-02-11 02:45:00,
2013-02-10 22:00:00,56.2,54.2,30.18,NNE,13,1.0,2.0,93,0.07,,---,0.07,VWS V14.01,2013-02-11 03:00:00,
2013-02-10 22:15:00,55.9,54.2,30.18,ENE,65,0.0,3.0,94,0.08,,---,0.08,VWS V14.01,2013-02-11 03:15:00,
2013-02-10 22:30:00,55.7,54.0,30.18,ENE,64,0.0,2.0,94,0.10,,---,0.10,VWS V14.01,2013-02-11 03:30:00,
2013-02-10 22:45:00,55.5,54.1,30.17,ENE,68,1.0,3.0,95,0.12,,---,0.13,VWS V14.01,2013-02-11 03:45:00,
2013-02-10 23:00:00,55.4,54.0,30.17,ENE,73,1.0,2.0,95,0.10,,---,0.15,VWS V14.01,2013-02-11 04:00:00,
2013-02-10 23:15:00,55.1,53.7,30.17,East,98,1.0,2.0,95,0.11,,---,0.18,VWS V14.01,2013-02-11 04:15:00,
2013-02-10 23:30:00,54.9,53.5,30.17,ESE,110,1.0,2.0,95,0.13,,---,0.21,VWS V14.01,2013-02-11 04:30:00,
2013-02-10 23:45:00,54.6,53.2,30.17,ESE,110,1.0,4.0,95,0.13,,---,0.23,VWS V14.01,2013-02-11 04:45:00,